sensor_id;sensor_type;location;lat;lon;timestamp;P1;durP1;ratioP1;P2;durP2;ratioP2
35981;SDS011;22058;0.000;0.000;2023-07-13T00:00:25;6.13;;;2.25;;
35981;SDS011;22058;0.000;0.000;2023-07-13T00:02:52;8.75;;;2.58;;
35981;SDS011;22058;0.000;0.000;2023-07-13T00:05:19;12.70;;;2.20;;
35981;SDS011;22058;0.000;0.000;2023-07-13T00:07:45;2.95;;;2.33;;
35981;SDS011;22058;0.000;0.000;2023-07-13T00:10:12;5.57;;;2.42;;
35981;SDS011;22058;0.000;0.000;2023-07-13T00:12:38;7.88;;;2.58;;
35981;SDS011;22058;0.000;0.000;2023-07-13T00:15:07;4.97;;;2.72;;
35981;SDS011;22058;0.000;0.000;2023-07-13T00:17:33;3.30;;;2.50;;
35981;SDS011;22058;0.000;0.000;2023-07-13T00:19:59;6.95;;;2.08;;
35981;SDS011;22058;0.000;0.000;2023-07-13T00:22:25;8.43;;;3.28;;
35981;SDS011;22058;0.000;0.000;2023-07-13T00:24:52;8.90;;;2.20;;
35981;SDS011;22058;0.000;0.000;2023-07-13T00:27:21;4.10;;;1.90;;
35981;SDS011;22058;0.000;0.000;2023-07-13T00:29:47;6.40;;;2.17;;
35981;SDS011;22058;0.000;0.000;2023-07-13T00:32:13;6.32;;;2.17;;
35981;SDS011;22058;0.000;0.000;2023-07-13T00:34:39;8.05;;;2.35;;
35981;SDS011;22058;0.000;0.000;2023-07-13T00:37:06;7.45;;;2.35;;
35981;SDS011;22058;0.000;0.000;2023-07-13T00:39:33;5.22;;;2.25;;
35981;SDS011;22058;0.000;0.000;2023-07-13T00:42:00;8.88;;;2.42;;
35981;SDS011;22058;0.000;0.000;2023-07-13T00:44:26;8.88;;;2.10;;
35981;SDS011;22058;0.000;0.000;2023-07-13T00:46:52;3.78;;;2.20;;
35981;SDS011;22058;0.000;0.000;2023-07-13T00:49:23;4.78;;;2.05;;
35981;SDS011;22058;0.000;0.000;2023-07-13T00:51:54;6.18;;;2.03;;
35981;SDS011;22058;0.000;0.000;2023-07-13T00:54:22;8.85;;;2.60;;
35981;SDS011;22058;0.000;0.000;2023-07-13T00:56:49;8.02;;;2.92;;
35981;SDS011;22058;0.000;0.000;2023-07-13T00:59:17;3.35;;;1.90;;
35981;SDS011;22058;0.000;0.000;2023-07-13T01:01:44;5.60;;;2.13;;
35981;SDS011;22058;0.000;0.000;2023-07-13T01:04:10;8.95;;;2.80;;
35981;SDS011;22058;0.000;0.000;2023-07-13T01:06:38;8.00;;;2.08;;
35981;SDS011;22058;0.000;0.000;2023-07-13T01:09:05;3.58;;;2.22;;
35981;SDS011;22058;0.000;0.000;2023-07-13T01:11:32;9.77;;;2.70;;
35981;SDS011;22058;0.000;0.000;2023-07-13T01:13:59;3.63;;;2.35;;
35981;SDS011;22058;0.000;0.000;2023-07-13T01:16:30;6.90;;;3.17;;
35981;SDS011;22058;0.000;0.000;2023-07-13T01:18:57;9.45;;;2.45;;
35981;SDS011;22058;0.000;0.000;2023-07-13T01:21:24;3.83;;;2.72;;
35981;SDS011;22058;0.000;0.000;2023-07-13T01:23:50;5.65;;;2.08;;
35981;SDS011;22058;0.000;0.000;2023-07-13T01:26:17;9.00;;;2.10;;
35981;SDS011;22058;0.000;0.000;2023-07-13T01:28:43;4.43;;;1.90;;
35981;SDS011;22058;0.000;0.000;2023-07-13T01:31:10;4.15;;;2.15;;
35981;SDS011;22058;0.000;0.000;2023-07-13T01:33:36;6.68;;;2.72;;
35981;SDS011;22058;0.000;0.000;2023-07-13T01:36:05;8.75;;;2.30;;
35981;SDS011;22058;0.000;0.000;2023-07-13T01:38:31;8.70;;;2.72;;
35981;SDS011;22058;0.000;0.000;2023-07-13T01:40:57;7.50;;;2.28;;
35981;SDS011;22058;0.000;0.000;2023-07-13T01:43:24;5.88;;;2.55;;
35981;SDS011;22058;0.000;0.000;2023-07-13T01:45:50;4.75;;;2.03;;
35981;SDS011;22058;0.000;0.000;2023-07-13T01:48:16;4.20;;;2.25;;
35981;SDS011;22058;0.000;0.000;2023-07-13T01:50:42;5.68;;;2.67;;
35981;SDS011;22058;0.000;0.000;2023-07-13T01:53:09;5.18;;;2.03;;
35981;SDS011;22058;0.000;0.000;2023-07-13T01:55:35;5.90;;;1.80;;
35981;SDS011;22058;0.000;0.000;2023-07-13T01:58:02;5.63;;;2.35;;
35981;SDS011;22058;0.000;0.000;2023-07-13T02:00:29;3.47;;;2.03;;
35981;SDS011;22058;0.000;0.000;2023-07-13T02:02:55;6.45;;;2.17;;
35981;SDS011;22058;0.000;0.000;2023-07-13T02:05:21;3.83;;;1.75;;
35981;SDS011;22058;0.000;0.000;2023-07-13T02:07:47;4.13;;;2.03;;
35981;SDS011;22058;0.000;0.000;2023-07-13T02:10:14;4.28;;;2.10;;
35981;SDS011;22058;0.000;0.000;2023-07-13T02:12:41;3.65;;;1.85;;
35981;SDS011;22058;0.000;0.000;2023-07-13T02:15:07;6.07;;;2.03;;
35981;SDS011;22058;0.000;0.000;2023-07-13T02:17:34;2.33;;;1.70;;
35981;SDS011;22058;0.000;0.000;2023-07-13T02:20:02;4.78;;;2.15;;
35981;SDS011;22058;0.000;0.000;2023-07-13T02:22:28;4.82;;;2.20;;
35981;SDS011;22058;0.000;0.000;2023-07-13T02:24:54;2.60;;;1.67;;
35981;SDS011;22058;0.000;0.000;2023-07-13T02:27:21;3.35;;;1.98;;
35981;SDS011;22058;0.000;0.000;2023-07-13T02:29:47;3.10;;;1.90;;
35981;SDS011;22058;0.000;0.000;2023-07-13T02:32:16;3.13;;;1.95;;
35981;SDS011;22058;0.000;0.000;2023-07-13T02:34:42;2.83;;;1.92;;
35981;SDS011;22058;0.000;0.000;2023-07-13T02:37:08;2.47;;;1.77;;
35981;SDS011;22058;0.000;0.000;2023-07-13T02:39:35;5.63;;;2.58;;
35981;SDS011;22058;0.000;0.000;2023-07-13T02:42:01;6.30;;;2.28;;
35981;SDS011;22058;0.000;0.000;2023-07-13T02:44:28;3.22;;;2.22;;
35981;SDS011;22058;0.000;0.000;2023-07-13T02:46:54;4.18;;;2.33;;
35981;SDS011;22058;0.000;0.000;2023-07-13T02:49:20;4.15;;;2.00;;
35981;SDS011;22058;0.000;0.000;2023-07-13T02:51:47;2.50;;;1.80;;
35981;SDS011;22058;0.000;0.000;2023-07-13T02:54:13;6.07;;;1.83;;
35981;SDS011;22058;0.000;0.000;2023-07-13T02:56:39;4.53;;;1.90;;
35981;SDS011;22058;0.000;0.000;2023-07-13T02:59:06;2.72;;;1.90;;
35981;SDS011;22058;0.000;0.000;2023-07-13T03:01:32;5.43;;;2.13;;
35981;SDS011;22058;0.000;0.000;2023-07-13T03:04:00;3.53;;;1.75;;
35981;SDS011;22058;0.000;0.000;2023-07-13T03:06:26;5.13;;;2.08;;
35981;SDS011;22058;0.000;0.000;2023-07-13T03:08:55;9.05;;;2.13;;
35981;SDS011;22058;0.000;0.000;2023-07-13T03:11:22;2.65;;;1.85;;
35981;SDS011;22058;0.000;0.000;2023-07-13T03:13:48;1.85;;;1.27;;
35981;SDS011;22058;0.000;0.000;2023-07-13T03:16:15;1.70;;;1.60;;
35981;SDS011;22058;0.000;0.000;2023-07-13T03:18:41;3.17;;;2.10;;
35981;SDS011;22058;0.000;0.000;2023-07-13T03:21:07;3.13;;;1.58;;
35981;SDS011;22058;0.000;0.000;2023-07-13T03:23:34;2.97;;;1.67;;
35981;SDS011;22058;0.000;0.000;2023-07-13T03:26:01;5.88;;;1.65;;
35981;SDS011;22058;0.000;0.000;2023-07-13T03:28:27;2.03;;;1.50;;
35981;SDS011;22058;0.000;0.000;2023-07-13T03:31:03;3.40;;;1.90;;
35981;SDS011;22058;0.000;0.000;2023-07-13T03:33:30;4.55;;;1.58;;
35981;SDS011;22058;0.000;0.000;2023-07-13T03:35:56;3.45;;;1.63;;
35981;SDS011;22058;0.000;0.000;2023-07-13T03:38:23;3.30;;;1.80;;
35981;SDS011;22058;0.000;0.000;2023-07-13T03:40:50;5.53;;;2.05;;
35981;SDS011;22058;0.000;0.000;2023-07-13T03:43:16;3.45;;;1.85;;
35981;SDS011;22058;0.000;0.000;2023-07-13T03:45:42;2.38;;;1.48;;
35981;SDS011;22058;0.000;0.000;2023-07-13T03:48:09;2.20;;;1.50;;
35981;SDS011;22058;0.000;0.000;2023-07-13T03:50:35;3.40;;;2.08;;
35981;SDS011;22058;0.000;0.000;2023-07-13T03:53:01;3.70;;;2.05;;
35981;SDS011;22058;0.000;0.000;2023-07-13T03:55:27;6.43;;;2.03;;
35981;SDS011;22058;0.000;0.000;2023-07-13T03:57:54;3.30;;;1.80;;
35981;SDS011;22058;0.000;0.000;2023-07-13T04:00:23;2.75;;;1.80;;
35981;SDS011;22058;0.000;0.000;2023-07-13T04:02:49;6.45;;;2.00;;
35981;SDS011;22058;0.000;0.000;2023-07-13T04:05:16;3.80;;;1.67;;
35981;SDS011;22058;0.000;0.000;2023-07-13T04:07:42;3.00;;;1.63;;
35981;SDS011;22058;0.000;0.000;2023-07-13T04:10:09;5.10;;;1.98;;
35981;SDS011;22058;0.000;0.000;2023-07-13T04:12:35;5.45;;;2.65;;
35981;SDS011;22058;0.000;0.000;2023-07-13T04:15:01;2.85;;;1.88;;
35981;SDS011;22058;0.000;0.000;2023-07-13T04:17:27;4.25;;;1.92;;
35981;SDS011;22058;0.000;0.000;2023-07-13T04:19:54;4.72;;;2.05;;
35981;SDS011;22058;0.000;0.000;2023-07-13T04:22:20;5.82;;;1.83;;
35981;SDS011;22058;0.000;0.000;2023-07-13T04:24:46;2.20;;;1.40;;
35981;SDS011;22058;0.000;0.000;2023-07-13T04:27:12;3.00;;;1.95;;
35981;SDS011;22058;0.000;0.000;2023-07-13T04:29:38;4.28;;;2.00;;
35981;SDS011;22058;0.000;0.000;2023-07-13T04:32:05;4.00;;;1.92;;
35981;SDS011;22058;0.000;0.000;2023-07-13T04:34:31;5.22;;;1.58;;
35981;SDS011;22058;0.000;0.000;2023-07-13T04:36:58;5.85;;;2.70;;
35981;SDS011;22058;0.000;0.000;2023-07-13T04:39:24;4.50;;;1.50;;
35981;SDS011;22058;0.000;0.000;2023-07-13T04:41:50;6.25;;;2.08;;
35981;SDS011;22058;0.000;0.000;2023-07-13T04:44:16;5.40;;;1.83;;
35981;SDS011;22058;0.000;0.000;2023-07-13T04:46:42;4.95;;;1.88;;
35981;SDS011;22058;0.000;0.000;2023-07-13T04:49:09;6.50;;;2.58;;
35981;SDS011;22058;0.000;0.000;2023-07-13T04:51:35;5.35;;;2.20;;
35981;SDS011;22058;0.000;0.000;2023-07-13T04:54:01;11.13;;;2.80;;
35981;SDS011;22058;0.000;0.000;2023-07-13T04:56:27;10.35;;;2.00;;
35981;SDS011;22058;0.000;0.000;2023-07-13T04:58:55;3.65;;;2.65;;
35981;SDS011;22058;0.000;0.000;2023-07-13T05:01:21;4.20;;;1.98;;
35981;SDS011;22058;0.000;0.000;2023-07-13T05:03:48;5.15;;;2.00;;
35981;SDS011;22058;0.000;0.000;2023-07-13T05:06:14;3.90;;;1.88;;
35981;SDS011;22058;0.000;0.000;2023-07-13T05:08:40;12.50;;;2.60;;
35981;SDS011;22058;0.000;0.000;2023-07-13T05:11:06;5.60;;;1.90;;
35981;SDS011;22058;0.000;0.000;2023-07-13T05:13:32;2.50;;;1.88;;
35981;SDS011;22058;0.000;0.000;2023-07-13T05:16:00;7.20;;;1.95;;
35981;SDS011;22058;0.000;0.000;2023-07-13T05:18:27;6.55;;;2.38;;
35981;SDS011;22058;0.000;0.000;2023-07-13T05:21:04;7.15;;;2.55;;
35981;SDS011;22058;0.000;0.000;2023-07-13T05:23:31;4.78;;;1.98;;
35981;SDS011;22058;0.000;0.000;2023-07-13T05:25:57;7.15;;;2.63;;
35981;SDS011;22058;0.000;0.000;2023-07-13T05:28:24;7.70;;;2.50;;
35981;SDS011;22058;0.000;0.000;2023-07-13T05:30:51;7.85;;;2.28;;
35981;SDS011;22058;0.000;0.000;2023-07-13T05:33:17;5.68;;;2.15;;
35981;SDS011;22058;0.000;0.000;2023-07-13T05:35:43;9.00;;;3.00;;
35981;SDS011;22058;0.000;0.000;2023-07-13T05:38:09;9.15;;;2.60;;
35981;SDS011;22058;0.000;0.000;2023-07-13T05:40:35;10.40;;;2.17;;
35981;SDS011;22058;0.000;0.000;2023-07-13T05:43:02;6.13;;;2.50;;
35981;SDS011;22058;0.000;0.000;2023-07-13T05:45:28;9.00;;;2.70;;
35981;SDS011;22058;0.000;0.000;2023-07-13T05:47:54;5.10;;;2.40;;
35981;SDS011;22058;0.000;0.000;2023-07-13T05:50:20;10.07;;;3.08;;
35981;SDS011;22058;0.000;0.000;2023-07-13T05:52:47;5.28;;;2.10;;
35981;SDS011;22058;0.000;0.000;2023-07-13T05:55:13;6.05;;;2.03;;
35981;SDS011;22058;0.000;0.000;2023-07-13T05:57:39;5.35;;;2.38;;
35981;SDS011;22058;0.000;0.000;2023-07-13T06:00:06;12.68;;;2.63;;
35981;SDS011;22058;0.000;0.000;2023-07-13T06:02:32;7.40;;;2.15;;
35981;SDS011;22058;0.000;0.000;2023-07-13T06:04:58;9.55;;;2.25;;
35981;SDS011;22058;0.000;0.000;2023-07-13T06:07:24;11.70;;;3.15;;
35981;SDS011;22058;0.000;0.000;2023-07-13T06:09:50;6.40;;;2.38;;
35981;SDS011;22058;0.000;0.000;2023-07-13T06:12:17;7.57;;;2.33;;
35981;SDS011;22058;0.000;0.000;2023-07-13T06:14:43;6.80;;;2.33;;
35981;SDS011;22058;0.000;0.000;2023-07-13T06:17:09;10.90;;;2.65;;
35981;SDS011;22058;0.000;0.000;2023-07-13T06:19:35;25.20;;;2.47;;
35981;SDS011;22058;0.000;0.000;2023-07-13T06:22:02;7.03;;;2.17;;
35981;SDS011;22058;0.000;0.000;2023-07-13T06:24:28;3.35;;;2.20;;
35981;SDS011;22058;0.000;0.000;2023-07-13T06:26:54;6.32;;;2.20;;
35981;SDS011;22058;0.000;0.000;2023-07-13T06:29:20;5.05;;;2.10;;
35981;SDS011;22058;0.000;0.000;2023-07-13T06:31:47;9.82;;;2.50;;
35981;SDS011;22058;0.000;0.000;2023-07-13T06:34:13;13.38;;;2.70;;
35981;SDS011;22058;0.000;0.000;2023-07-13T06:36:39;7.90;;;2.60;;
35981;SDS011;22058;0.000;0.000;2023-07-13T06:39:06;11.15;;;2.25;;
35981;SDS011;22058;0.000;0.000;2023-07-13T06:41:32;5.70;;;1.52;;
35981;SDS011;22058;0.000;0.000;2023-07-13T06:43:59;6.38;;;2.35;;
35981;SDS011;22058;0.000;0.000;2023-07-13T06:46:25;7.07;;;2.90;;
35981;SDS011;22058;0.000;0.000;2023-07-13T06:48:51;11.50;;;2.70;;
35981;SDS011;22058;0.000;0.000;2023-07-13T06:51:18;9.43;;;2.53;;
35981;SDS011;22058;0.000;0.000;2023-07-13T06:53:44;8.05;;;2.45;;
35981;SDS011;22058;0.000;0.000;2023-07-13T06:56:10;9.80;;;2.40;;
35981;SDS011;22058;0.000;0.000;2023-07-13T06:58:36;5.25;;;2.72;;
35981;SDS011;22058;0.000;0.000;2023-07-13T07:01:03;16.27;;;2.90;;
35981;SDS011;22058;0.000;0.000;2023-07-13T07:03:30;7.00;;;2.47;;
35981;SDS011;22058;0.000;0.000;2023-07-13T07:08:40;11.27;;;2.70;;
35981;SDS011;22058;0.000;0.000;2023-07-13T07:11:08;5.65;;;2.40;;
35981;SDS011;22058;0.000;0.000;2023-07-13T07:13:34;14.50;;;3.10;;
35981;SDS011;22058;0.000;0.000;2023-07-13T07:16:01;6.53;;;3.40;;
35981;SDS011;22058;0.000;0.000;2023-07-13T07:18:27;17.40;;;3.05;;
35981;SDS011;22058;0.000;0.000;2023-07-13T07:20:53;7.00;;;2.65;;
35981;SDS011;22058;0.000;0.000;2023-07-13T07:23:19;9.52;;;2.80;;
35981;SDS011;22058;0.000;0.000;2023-07-13T07:25:46;8.80;;;3.05;;
35981;SDS011;22058;0.000;0.000;2023-07-13T07:28:14;14.15;;;2.67;;
35981;SDS011;22058;0.000;0.000;2023-07-13T07:30:43;9.52;;;2.53;;
35981;SDS011;22058;0.000;0.000;2023-07-13T07:33:09;9.90;;;2.78;;
35981;SDS011;22058;0.000;0.000;2023-07-13T07:35:36;12.25;;;3.08;;
35981;SDS011;22058;0.000;0.000;2023-07-13T07:38:02;9.80;;;2.70;;
35981;SDS011;22058;0.000;0.000;2023-07-13T07:40:28;8.52;;;3.00;;
35981;SDS011;22058;0.000;0.000;2023-07-13T07:42:56;21.48;;;3.80;;
35981;SDS011;22058;0.000;0.000;2023-07-13T07:45:23;24.02;;;3.83;;
35981;SDS011;22058;0.000;0.000;2023-07-13T07:47:49;14.23;;;4.10;;
35981;SDS011;22058;0.000;0.000;2023-07-13T07:50:15;7.80;;;3.40;;
35981;SDS011;22058;0.000;0.000;2023-07-13T07:52:41;15.73;;;2.65;;
35981;SDS011;22058;0.000;0.000;2023-07-13T07:55:09;12.85;;;3.78;;
35981;SDS011;22058;0.000;0.000;2023-07-13T07:57:35;15.18;;;2.88;;
35981;SDS011;22058;0.000;0.000;2023-07-13T08:00:02;16.67;;;3.13;;
35981;SDS011;22058;0.000;0.000;2023-07-13T08:02:28;7.15;;;2.88;;
35981;SDS011;22058;0.000;0.000;2023-07-13T08:04:54;11.30;;;3.25;;
35981;SDS011;22058;0.000;0.000;2023-07-13T08:07:20;12.07;;;3.42;;
35981;SDS011;22058;0.000;0.000;2023-07-13T08:09:46;11.77;;;4.72;;
35981;SDS011;22058;0.000;0.000;2023-07-13T08:12:17;14.63;;;3.58;;
35981;SDS011;22058;0.000;0.000;2023-07-13T08:14:43;15.45;;;3.30;;
35981;SDS011;22058;0.000;0.000;2023-07-13T08:17:09;17.05;;;4.47;;
35981;SDS011;22058;0.000;0.000;2023-07-13T08:19:35;29.52;;;4.78;;
35981;SDS011;22058;0.000;0.000;2023-07-13T08:22:02;13.25;;;4.20;;
35981;SDS011;22058;0.000;0.000;2023-07-13T08:24:28;14.07;;;2.88;;
35981;SDS011;22058;0.000;0.000;2023-07-13T08:26:54;14.57;;;3.65;;
35981;SDS011;22058;0.000;0.000;2023-07-13T08:29:20;15.85;;;3.22;;
35981;SDS011;22058;0.000;0.000;2023-07-13T08:31:47;22.13;;;3.53;;
35981;SDS011;22058;0.000;0.000;2023-07-13T08:34:13;25.15;;;4.63;;
35981;SDS011;22058;0.000;0.000;2023-07-13T08:36:40;17.60;;;3.50;;
35981;SDS011;22058;0.000;0.000;2023-07-13T08:39:06;12.30;;;3.28;;
35981;SDS011;22058;0.000;0.000;2023-07-13T08:41:32;13.20;;;4.40;;
35981;SDS011;22058;0.000;0.000;2023-07-13T08:43:59;14.57;;;3.83;;
35981;SDS011;22058;0.000;0.000;2023-07-13T08:49:00;17.50;;;6.55;;
35981;SDS011;22058;0.000;0.000;2023-07-13T08:51:35;13.02;;;3.65;;
35981;SDS011;22058;0.000;0.000;2023-07-13T08:54:03;21.73;;;3.53;;
35981;SDS011;22058;0.000;0.000;2023-07-13T08:56:31;16.75;;;4.18;;
35981;SDS011;22058;0.000;0.000;2023-07-13T08:59:00;10.23;;;3.22;;
35981;SDS011;22058;0.000;0.000;2023-07-13T09:01:41;19.48;;;3.40;;
35981;SDS011;22058;0.000;0.000;2023-07-13T09:04:14;13.40;;;3.28;;
35981;SDS011;22058;0.000;0.000;2023-07-13T09:09:56;15.57;;;3.50;;
35981;SDS011;22058;0.000;0.000;2023-07-13T09:12:11;10.18;;;2.97;;
35981;SDS011;22058;0.000;0.000;2023-07-13T09:14:47;9.45;;;3.80;;
35981;SDS011;22058;0.000;0.000;2023-07-13T09:17:17;11.20;;;2.40;;
35981;SDS011;22058;0.000;0.000;2023-07-13T09:19:43;8.75;;;2.67;;
35981;SDS011;22058;0.000;0.000;2023-07-13T09:22:13;7.07;;;2.83;;
35981;SDS011;22058;0.000;0.000;2023-07-13T09:24:46;13.35;;;3.60;;
35981;SDS011;22058;0.000;0.000;2023-07-13T09:27:21;12.55;;;4.47;;
35981;SDS011;22058;0.000;0.000;2023-07-13T09:29:49;12.40;;;3.60;;
35981;SDS011;22058;0.000;0.000;2023-07-13T09:32:17;12.88;;;3.20;;
35981;SDS011;22058;0.000;0.000;2023-07-13T09:34:49;7.28;;;2.67;;
35981;SDS011;22058;0.000;0.000;2023-07-13T09:37:16;12.45;;;3.58;;
35981;SDS011;22058;0.000;0.000;2023-07-13T09:39:42;4.80;;;2.55;;
35981;SDS011;22058;0.000;0.000;2023-07-13T09:44:51;5.20;;;2.88;;
35981;SDS011;22058;0.000;0.000;2023-07-13T09:47:22;11.10;;;2.65;;
35981;SDS011;22058;0.000;0.000;2023-07-13T09:50:14;11.25;;;3.42;;
35981;SDS011;22058;0.000;0.000;2023-07-13T09:52:42;15.57;;;3.05;;
35981;SDS011;22058;0.000;0.000;2023-07-13T09:57:54;18.73;;;4.13;;
35981;SDS011;22058;0.000;0.000;2023-07-13T10:00:22;19.67;;;3.65;;
35981;SDS011;22058;0.000;0.000;2023-07-13T10:02:57;12.77;;;3.00;;
35981;SDS011;22058;0.000;0.000;2023-07-13T10:05:24;8.02;;;2.97;;
35981;SDS011;22058;0.000;0.000;2023-07-13T10:07:51;5.68;;;2.42;;
35981;SDS011;22058;0.000;0.000;2023-07-13T10:10:18;7.80;;;2.75;;
35981;SDS011;22058;0.000;0.000;2023-07-13T10:12:45;10.20;;;3.67;;
35981;SDS011;22058;0.000;0.000;2023-07-13T10:15:16;15.85;;;3.42;;
35981;SDS011;22058;0.000;0.000;2023-07-13T10:17:43;11.45;;;3.13;;
35981;SDS011;22058;0.000;0.000;2023-07-13T10:20:10;6.25;;;3.20;;
35981;SDS011;22058;0.000;0.000;2023-07-13T10:25:19;10.27;;;2.83;;
35981;SDS011;22058;0.000;0.000;2023-07-13T10:27:48;13.30;;;2.70;;
35981;SDS011;22058;0.000;0.000;2023-07-13T10:32:46;10.30;;;3.65;;
35981;SDS011;22058;0.000;0.000;2023-07-13T10:35:13;11.60;;;3.88;;
35981;SDS011;22058;0.000;0.000;2023-07-13T10:38:00;7.13;;;2.45;;
35981;SDS011;22058;0.000;0.000;2023-07-13T10:42:57;5.88;;;2.50;;
35981;SDS011;22058;0.000;0.000;2023-07-13T10:45:25;5.63;;;2.28;;
35981;SDS011;22058;0.000;0.000;2023-07-13T10:47:53;12.10;;;3.05;;
35981;SDS011;22058;0.000;0.000;2023-07-13T10:50:24;7.32;;;2.95;;
35981;SDS011;22058;0.000;0.000;2023-07-13T10:52:51;17.27;;;3.57;;
35981;SDS011;22058;0.000;0.000;2023-07-13T10:58:02;10.35;;;2.63;;
35981;SDS011;22058;0.000;0.000;2023-07-13T11:00:32;17.20;;;3.15;;
35981;SDS011;22058;0.000;0.000;2023-07-13T11:03:13;18.83;;;3.95;;
35981;SDS011;22058;0.000;0.000;2023-07-13T11:05:40;12.38;;;3.67;;
35981;SDS011;22058;0.000;0.000;2023-07-13T11:08:14;9.15;;;2.97;;
35981;SDS011;22058;0.000;0.000;2023-07-13T11:10:59;10.90;;;2.90;;
35981;SDS011;22058;0.000;0.000;2023-07-13T11:13:36;13.55;;;4.15;;
35981;SDS011;22058;0.000;0.000;2023-07-13T11:16:12;12.45;;;3.10;;
35981;SDS011;22058;0.000;0.000;2023-07-13T11:18:39;8.13;;;2.85;;
35981;SDS011;22058;0.000;0.000;2023-07-13T11:23:44;13.20;;;4.38;;
35981;SDS011;22058;0.000;0.000;2023-07-13T11:28:57;16.55;;;3.58;;
35981;SDS011;22058;0.000;0.000;2023-07-13T11:31:23;14.75;;;3.63;;
35981;SDS011;22058;0.000;0.000;2023-07-13T11:33:51;15.65;;;3.38;;
35981;SDS011;22058;0.000;0.000;2023-07-13T11:36:19;7.82;;;2.63;;
35981;SDS011;22058;0.000;0.000;2023-07-13T11:41:36;9.43;;;3.17;;
35981;SDS011;22058;0.000;0.000;2023-07-13T11:46:29;19.63;;;3.53;;
35981;SDS011;22058;0.000;0.000;2023-07-13T11:48:56;10.85;;;4.13;;
35981;SDS011;22058;0.000;0.000;2023-07-13T11:51:31;8.57;;;3.15;;
35981;SDS011;22058;0.000;0.000;2023-07-13T11:54:00;15.93;;;3.83;;
35981;SDS011;22058;0.000;0.000;2023-07-13T11:56:27;22.77;;;3.95;;
35981;SDS011;22058;0.000;0.000;2023-07-13T11:58:54;11.23;;;2.67;;
35981;SDS011;22058;0.000;0.000;2023-07-13T12:01:28;10.48;;;3.95;;
35981;SDS011;22058;0.000;0.000;2023-07-13T12:03:58;11.95;;;3.35;;
35981;SDS011;22058;0.000;0.000;2023-07-13T12:06:27;12.10;;;2.78;;
35981;SDS011;22058;0.000;0.000;2023-07-13T12:09:00;13.20;;;4.68;;
35981;SDS011;22058;0.000;0.000;2023-07-13T12:11:28;7.72;;;3.28;;
35981;SDS011;22058;0.000;0.000;2023-07-13T12:13:55;11.50;;;2.60;;
35981;SDS011;22058;0.000;0.000;2023-07-13T12:16:31;12.60;;;4.28;;
35981;SDS011;22058;0.000;0.000;2023-07-13T12:18:58;13.15;;;3.58;;
35981;SDS011;22058;0.000;0.000;2023-07-13T12:21:36;14.88;;;3.65;;
35981;SDS011;22058;0.000;0.000;2023-07-13T12:24:03;21.58;;;4.20;;
35981;SDS011;22058;0.000;0.000;2023-07-13T12:26:30;14.35;;;3.17;;
35981;SDS011;22058;0.000;0.000;2023-07-13T12:28:58;15.80;;;4.13;;
35981;SDS011;22058;0.000;0.000;2023-07-13T12:33:58;7.43;;;3.55;;
35981;SDS011;22058;0.000;0.000;2023-07-13T12:36:24;9.98;;;3.33;;
35981;SDS011;22058;0.000;0.000;2023-07-13T12:38:51;9.27;;;3.70;;
35981;SDS011;22058;0.000;0.000;2023-07-13T12:41:17;12.65;;;3.25;;
35981;SDS011;22058;0.000;0.000;2023-07-13T12:43:44;15.85;;;3.67;;
35981;SDS011;22058;0.000;0.000;2023-07-13T12:46:20;11.25;;;3.50;;
35981;SDS011;22058;0.000;0.000;2023-07-13T12:48:52;20.13;;;3.38;;
35981;SDS011;22058;0.000;0.000;2023-07-13T12:51:21;13.60;;;3.03;;
35981;SDS011;22058;0.000;0.000;2023-07-13T12:53:49;10.00;;;3.72;;
35981;SDS011;22058;0.000;0.000;2023-07-13T12:56:19;10.05;;;3.13;;
35981;SDS011;22058;0.000;0.000;2023-07-13T12:58:47;10.00;;;3.40;;
35981;SDS011;22058;0.000;0.000;2023-07-13T13:01:20;11.20;;;2.97;;
35981;SDS011;22058;0.000;0.000;2023-07-13T13:03:48;11.52;;;4.05;;
35981;SDS011;22058;0.000;0.000;2023-07-13T13:08:48;10.13;;;3.40;;
35981;SDS011;22058;0.000;0.000;2023-07-13T13:11:15;12.15;;;3.15;;
35981;SDS011;22058;0.000;0.000;2023-07-13T13:13:42;14.82;;;3.60;;
35981;SDS011;22058;0.000;0.000;2023-07-13T13:16:30;14.88;;;4.00;;
35981;SDS011;22058;0.000;0.000;2023-07-13T13:18:57;19.52;;;4.35;;
35981;SDS011;22058;0.000;0.000;2023-07-13T13:21:24;17.13;;;4.15;;
35981;SDS011;22058;0.000;0.000;2023-07-13T13:23:51;10.90;;;3.80;;
35981;SDS011;22058;0.000;0.000;2023-07-13T13:26:18;23.58;;;5.15;;
35981;SDS011;22058;0.000;0.000;2023-07-13T13:28:45;11.75;;;2.65;;
35981;SDS011;22058;0.000;0.000;2023-07-13T13:31:13;12.88;;;3.10;;
35981;SDS011;22058;0.000;0.000;2023-07-13T13:33:43;12.20;;;4.15;;
35981;SDS011;22058;0.000;0.000;2023-07-13T13:36:14;18.98;;;4.32;;
35981;SDS011;22058;0.000;0.000;2023-07-13T13:38:41;21.98;;;4.05;;
35981;SDS011;22058;0.000;0.000;2023-07-13T13:41:09;19.80;;;4.57;;
35981;SDS011;22058;0.000;0.000;2023-07-13T13:43:35;13.52;;;3.95;;
35981;SDS011;22058;0.000;0.000;2023-07-13T13:46:02;10.45;;;4.47;;
35981;SDS011;22058;0.000;0.000;2023-07-13T13:48:31;19.73;;;3.83;;
35981;SDS011;22058;0.000;0.000;2023-07-13T13:50:57;19.48;;;4.18;;
35981;SDS011;22058;0.000;0.000;2023-07-13T13:53:24;18.27;;;4.22;;
35981;SDS011;22058;0.000;0.000;2023-07-13T13:55:50;13.38;;;4.05;;
35981;SDS011;22058;0.000;0.000;2023-07-13T13:58:18;18.15;;;3.58;;
35981;SDS011;22058;0.000;0.000;2023-07-13T14:00:45;14.35;;;3.72;;
35981;SDS011;22058;0.000;0.000;2023-07-13T14:03:15;14.13;;;4.68;;
35981;SDS011;22058;0.000;0.000;2023-07-13T14:05:43;15.15;;;4.07;;
35981;SDS011;22058;0.000;0.000;2023-07-13T14:08:13;15.00;;;4.20;;
35981;SDS011;22058;0.000;0.000;2023-07-13T14:10:40;16.00;;;3.67;;
35981;SDS011;22058;0.000;0.000;2023-07-13T14:13:49;6.78;;;3.38;;
35981;SDS011;22058;0.000;0.000;2023-07-13T14:15:56;9.45;;;3.55;;
35981;SDS011;22058;0.000;0.000;2023-07-13T14:18:23;13.25;;;3.88;;
35981;SDS011;22058;0.000;0.000;2023-07-13T14:20:50;8.13;;;3.53;;
35981;SDS011;22058;0.000;0.000;2023-07-13T14:23:17;12.38;;;3.72;;
35981;SDS011;22058;0.000;0.000;2023-07-13T14:25:44;10.35;;;2.95;;
35981;SDS011;22058;0.000;0.000;2023-07-13T14:28:21;21.77;;;4.28;;
35981;SDS011;22058;0.000;0.000;2023-07-13T14:30:48;8.75;;;3.08;;
35981;SDS011;22058;0.000;0.000;2023-07-13T14:33:15;6.60;;;3.13;;
35981;SDS011;22058;0.000;0.000;2023-07-13T14:35:41;10.13;;;2.80;;
35981;SDS011;22058;0.000;0.000;2023-07-13T14:38:09;13.93;;;3.50;;
35981;SDS011;22058;0.000;0.000;2023-07-13T14:40:36;14.05;;;3.05;;
35981;SDS011;22058;0.000;0.000;2023-07-13T14:43:03;10.45;;;4.00;;
35981;SDS011;22058;0.000;0.000;2023-07-13T14:45:29;19.00;;;4.30;;
35981;SDS011;22058;0.000;0.000;2023-07-13T14:47:56;16.33;;;4.25;;
35981;SDS011;22058;0.000;0.000;2023-07-13T14:50:30;13.32;;;4.47;;
35981;SDS011;22058;0.000;0.000;2023-07-13T14:52:57;12.20;;;3.42;;
35981;SDS011;22058;0.000;0.000;2023-07-13T14:55:25;12.63;;;4.18;;
35981;SDS011;22058;0.000;0.000;2023-07-13T14:58:11;6.95;;;3.15;;
35981;SDS011;22058;0.000;0.000;2023-07-13T15:00:38;7.97;;;2.78;;
35981;SDS011;22058;0.000;0.000;2023-07-13T15:03:05;12.40;;;3.40;;
35981;SDS011;22058;0.000;0.000;2023-07-13T15:05:37;9.73;;;3.53;;
35981;SDS011;22058;0.000;0.000;2023-07-13T15:08:05;11.27;;;3.85;;
35981;SDS011;22058;0.000;0.000;2023-07-13T15:10:31;11.70;;;3.67;;
35981;SDS011;22058;0.000;0.000;2023-07-13T15:12:59;6.35;;;3.45;;
35981;SDS011;22058;0.000;0.000;2023-07-13T15:15:27;17.17;;;3.42;;
35981;SDS011;22058;0.000;0.000;2023-07-13T15:17:53;7.85;;;3.28;;
35981;SDS011;22058;0.000;0.000;2023-07-13T15:22:50;12.20;;;4.32;;
35981;SDS011;22058;0.000;0.000;2023-07-13T15:25:21;7.50;;;3.30;;
35981;SDS011;22058;0.000;0.000;2023-07-13T15:27:49;14.02;;;4.50;;
35981;SDS011;22058;0.000;0.000;2023-07-13T15:30:16;5.68;;;2.92;;
35981;SDS011;22058;0.000;0.000;2023-07-13T15:32:42;11.10;;;2.67;;
35981;SDS011;22058;0.000;0.000;2023-07-13T15:35:13;5.85;;;3.00;;
35981;SDS011;22058;0.000;0.000;2023-07-13T15:37:39;18.90;;;3.30;;
35981;SDS011;22058;0.000;0.000;2023-07-13T15:40:06;14.05;;;3.60;;